HTZA/ZNZ METAR and TAF weather

Enter ICAO airport designator
Station Type Date Time Source
HTZA METAR 2018/04/19 12:00 UTC NOAA

HTZA 191200Z 14004KT 9999 FEW022 31/24 Q1010 NOSIG


Station Type Date Time Source
HTZA Decoded METAR 2018/04/19 12:00 UTC NOAA

Zanzibar / Kisauni, Tanzania (HTZA) 06-13S 039-13E 15M
Apr 19, 2018 - 08:00 AM EDT / 2018.04.19 1200 UTC
Wind: from the SE (140 degrees) at 5 MPH (4 KT):0
Visibility: greater than 7 mile(s):0
Sky conditions: mostly clear
Temperature: 87 F (31 C)
Heat index: 95.7 F (35.4 C):1
Dew Point: 75 F (24 C)
Relative Humidity: 66%
Pressure (altimeter): 29.83 in. Hg (1010 hPa)
ob: HTZA 191200Z 14004KT 9999 FEW022 31/24 Q1010 NOSIG
cycle: 12

Station Type Date Time Source
HTZA TAF 2018/04/19 12:54 UTC NOAA

TAF HTZA 191100Z 1912/2012 15010KT 9999 SCT018 FEW020CB
BECMG 1923/2001 22010KT BKN016 FEW018CB BKN080 PROB40
TEMPO 2003/2007 5000 TSRA


Example: see airport list